Time;durP1;ratioP1;P1;durP2;ratioP2;P2;SDS_P1;SDS_P2;PMS_P1;PMS_P2;Temp;Humidity;BMP_temperature;BMP_pressure;BME280_temperature;BME280_humidity;BME280_pressure;Samples;Min_cycle;Max_cycle;Signal;HPM_P1;HPM_P2
2021/03/13 00:00:14;;;;;;;;;;;22.90;26.30;;;;;;493992;239;947;-71
2021/03/13 00:02:15;;;;;;;;;;;23.00;26.40;;;;;;493962;239;1014;-71
2021/03/13 00:04:17;;;;;;;;;;;22.90;26.30;;;;;;493922;239;1035;-71
2021/03/13 00:06:18;;;;;;;;;;;23.00;26.30;;;;;;493867;240;1203;-71
2021/03/13 00:08:19;;;;;;;;;;;23.00;26.20;;;;;;494004;239;1038;-71
2021/03/13 00:10:20;;;;;;;;;;;23.00;26.30;;;;;;493893;239;1207;-71
2021/03/13 00:12:22;;;;;;;;;;;23.00;26.30;;;;;;493942;240;1268;-71
2021/03/13 00:14:23;;;;;;;;;;;23.00;26.30;;;;;;493957;239;2186;-71
2021/03/13 00:16:25;;;;;;;;;;;23.00;26.20;;;;;;493930;239;1454;-71
2021/03/13 00:18:26;;;;;;;;;;;23.00;26.20;;;;;;493945;239;941;-71
2021/03/13 00:20:27;;;;;;;;;;;23.10;26.20;;;;;;493957;239;1063;-71
2021/03/13 00:22:28;;;;;;;;;;;23.10;26.20;;;;;;494064;239;1314;-71
2021/03/13 00:24:30;;;;;;;;;;;23.10;26.10;;;;;;494076;239;1018;-71
2021/03/13 00:26:31;;;;;;;;;;;23.10;26.10;;;;;;494028;239;1173;-71
2021/03/13 00:28:32;;;;;;;;;;;23.10;26.10;;;;;;494017;241;1128;-72
2021/03/13 00:30:33;;;;;;;;;;;23.10;26.10;;;;;;494006;239;1140;-71
2021/03/13 00:32:35;;;;;;;;;;;23.10;26.10;;;;;;493876;239;1132;-71
2021/03/13 00:34:36;;;;;;;;;;;23.10;26.10;;;;;;494115;239;2190;-71
2021/03/13 00:36:37;;;;;;;;;;;23.00;26.10;;;;;;494027;239;1170;-71
2021/03/13 00:38:39;;;;;;;;;;;23.00;26.20;;;;;;493993;239;934;-71
2021/03/13 00:40:40;;;;;;;;;;;23.10;26.10;;;;;;493939;239;1082;-71
2021/03/13 00:42:41;;;;;;;;;;;23.00;26.10;;;;;;494041;239;1161;-71
2021/03/13 00:44:43;;;;;;;;;;;23.10;26.10;;;;;;494013;239;1156;-71
2021/03/13 00:46:45;;;;;;;;;;;23.10;26.10;;;;;;493918;239;1181;-71
2021/03/13 00:48:45;;;;;;;;;;;23.10;26.00;;;;;;493995;240;1392;-71
2021/03/13 00:50:47;;;;;;;;;;;23.10;26.00;;;;;;493930;239;1202;-71
2021/03/13 00:52:48;;;;;;;;;;;23.10;26.00;;;;;;494087;240;1084;-71
2021/03/13 00:54:49;;;;;;;;;;;23.20;26.00;;;;;;494189;239;2132;-71
2021/03/13 00:56:50;;;;;;;;;;;23.10;26.00;;;;;;494002;239;1221;-71
2021/03/13 00:58:52;;;;;;;;;;;23.20;26.00;;;;;;493959;239;1126;-71
2021/03/13 01:00:53;;;;;;;;;;;23.20;26.00;;;;;;493886;239;1097;-72
2021/03/13 01:02:54;;;;;;;;;;;23.20;26.10;;;;;;493932;239;1082;-71
2021/03/13 01:04:56;;;;;;;;;;;23.20;26.00;;;;;;494039;239;1045;-71
2021/03/13 01:06:57;;;;;;;;;;;23.20;26.00;;;;;;493900;239;1047;-71
2021/03/13 01:08:58;;;;;;;;;;;23.20;26.10;;;;;;494125;239;1035;-71
2021/03/13 01:10:59;;;;;;;;;;;23.10;26.00;;;;;;493966;239;1213;-71
2021/03/13 01:13:01;;;;;;;;;;;23.20;26.10;;;;;;494028;239;1150;-72
2021/03/13 01:15:02;;;;;;;;;;;23.30;26.00;;;;;;493961;239;2198;-71
2021/03/13 01:17:03;;;;;;;;;;;23.30;26.00;;;;;;493947;239;1066;-72
2021/03/13 01:19:04;;;;;;;;;;;23.30;25.90;;;;;;493965;239;1042;-71
2021/03/13 01:21:06;;;;;;;;;;;23.40;25.80;;;;;;493965;239;1290;-71
2021/03/13 01:23:07;;;;;;;;;;;23.50;25.90;;;;;;494048;239;1009;-71
2021/03/13 01:25:08;;;;;;;;;;;23.50;25.80;;;;;;493978;239;1026;-72
2021/03/13 01:27:10;;;;;;;;;;;23.50;25.80;;;;;;493928;239;1140;-72
2021/03/13 01:29:11;;;;;;;;;;;23.50;25.80;;;;;;494081;239;1126;-71
2021/03/13 01:31:12;;;;;;;;;;;23.50;25.80;;;;;;493941;239;1253;-71
2021/03/13 01:33:13;;;;;;;;;;;23.60;25.70;;;;;;494124;239;935;-71
2021/03/13 01:35:15;;;;;;;;;;;23.60;25.80;;;;;;493978;239;2120;-71
2021/03/13 01:37:16;;;;;;;;;;;23.60;25.80;;;;;;493984;239;1037;-71
2021/03/13 01:39:17;;;;;;;;;;;23.50;25.70;;;;;;494114;239;1016;-71
2021/03/13 01:41:18;;;;;;;;;;;23.60;25.80;;;;;;493991;239;1156;-72
2021/03/13 01:43:20;;;;;;;;;;;23.50;25.80;;;;;;493994;239;1015;-72
2021/03/13 01:45:21;;;;;;;;;;;23.50;25.80;;;;;;493970;239;1057;-71
2021/03/13 01:47:22;;;;;;;;;;;23.50;25.80;;;;;;493985;239;1036;-71
2021/03/13 01:49:24;;;;;;;;;;;23.40;25.80;;;;;;494276;239;1020;-71
2021/03/13 01:51:25;;;;;;;;;;;23.30;25.90;;;;;;494211;239;1111;-71
2021/03/13 01:53:26;;;;;;;;;;;23.30;25.90;;;;;;493953;239;1036;-71
2021/03/13 01:55:27;;;;;;;;;;;23.20;26.00;;;;;;494091;239;2112;-71
2021/03/13 01:57:29;;;;;;;;;;;23.10;26.00;;;;;;494145;239;1086;-71
2021/03/13 01:59:30;;;;;;;;;;;23.10;26.10;;;;;;494066;239;1041;-72
2021/03/13 02:01:31;;;;;;;;;;;23.10;26.20;;;;;;493976;239;1359;-72
2021/03/13 02:03:33;;;;;;;;;;;23.10;26.10;;;;;;494015;239;1087;-71
2021/03/13 02:05:34;;;;;;;;;;;23.00;26.20;;;;;;494048;239;1064;-72
2021/03/13 02:07:35;;;;;;;;;;;23.00;26.20;;;;;;493980;239;967;-71
2021/03/13 02:09:36;;;;;;;;;;;23.00;26.30;;;;;;494103;239;959;-71
2021/03/13 02:11:38;;;;;;;;;;;22.90;26.30;;;;;;494025;239;1041;-72
2021/03/13 02:13:39;;;;;;;;;;;22.90;26.40;;;;;;494195;239;1043;-71
2021/03/13 02:15:41;;;;;;;;;;;22.80;26.40;;;;;;493957;239;2108;-71
2021/03/13 02:17:42;;;;;;;;;;;22.70;26.50;;;;;;493929;239;1036;-71
2021/03/13 02:19:43;;;;;;;;;;;22.70;26.50;;;;;;494020;239;945;-71
2021/03/13 02:21:45;;;;;;;;;;;22.60;26.50;;;;;;494049;239;1165;-71
2021/03/13 02:23:46;;;;;;;;;;;22.60;26.60;;;;;;494109;239;1153;-71
2021/03/13 02:25:47;;;;;;;;;;;22.60;26.60;;;;;;493964;239;1053;-71
2021/03/13 02:27:48;;;;;;;;;;;22.50;26.60;;;;;;494001;239;1079;-71
2021/03/13 02:29:50;;;;;;;;;;;22.50;26.60;;;;;;494140;239;1171;-71
2021/03/13 02:31:51;;;;;;;;;;;22.50;26.70;;;;;;493965;239;1156;-71
2021/03/13 02:33:52;;;;;;;;;;;22.40;26.70;;;;;;494168;239;2143;-71
2021/03/13 02:35:54;;;;;;;;;;;22.40;26.70;;;;;;493855;239;1321;-71
2021/03/13 02:37:55;;;;;;;;;;;22.40;26.80;;;;;;493919;239;1207;-71
2021/03/13 02:39:56;;;;;;;;;;;22.30;26.80;;;;;;493967;239;1216;-71
2021/03/13 02:41:57;;;;;;;;;;;22.40;26.80;;;;;;494006;239;1155;-71
2021/03/13 02:43:59;;;;;;;;;;;22.30;26.80;;;;;;493948;239;1097;-71
2021/03/13 02:46:00;;;;;;;;;;;22.30;26.90;;;;;;494133;239;1261;-72
2021/03/13 02:48:01;;;;;;;;;;;22.30;26.90;;;;;;493932;240;1079;-71
2021/03/13 02:50:02;;;;;;;;;;;22.30;26.90;;;;;;494106;239;1031;-71
2021/03/13 02:52:04;;;;;;;;;;;22.40;26.90;;;;;;493974;239;1060;-71
2021/03/13 02:54:05;;;;;;;;;;;22.30;26.90;;;;;;494003;239;2191;-71
2021/03/13 02:56:06;;;;;;;;;;;22.30;27.00;;;;;;493956;239;1064;-71
2021/03/13 02:58:08;;;;;;;;;;;22.30;27.00;;;;;;494002;239;1022;-71
2021/03/13 03:00:09;;;;;;;;;;;22.30;27.00;;;;;;494017;240;1120;-71
2021/03/13 03:02:10;;;;;;;;;;;22.30;27.10;;;;;;493980;239;1218;-71
2021/03/13 03:04:11;;;;;;;;;;;22.30;27.10;;;;;;494095;239;1057;-71
2021/03/13 03:06:13;;;;;;;;;;;22.20;27.10;;;;;;494023;239;1127;-71
2021/03/13 03:08:14;;;;;;;;;;;22.20;27.10;;;;;;493974;239;1124;-71
2021/03/13 03:10:15;;;;;;;;;;;22.20;27.10;;;;;;493987;239;1032;-71
2021/03/13 03:12:16;;;;;;;;;;;22.20;27.20;;;;;;493969;239;1186;-71
2021/03/13 03:14:18;;;;;;;;;;;22.20;27.20;;;;;;493981;239;2190;-71
2021/03/13 03:16:19;;;;;;;;;;;22.20;27.20;;;;;;493877;239;1238;-71
2021/03/13 03:18:22;;;;;;;;;;;22.10;27.20;;;;;;494040;239;1028;-71
2021/03/13 03:20:22;;;;;;;;;;;22.20;27.20;;;;;;493851;241;1471;-71
2021/03/13 03:22:23;;;;;;;;;;;22.10;27.30;;;;;;493938;239;1041;-71
2021/03/13 03:24:24;;;;;;;;;;;22.20;27.30;;;;;;493953;239;1112;-71
2021/03/13 03:26:26;;;;;;;;;;;22.10;27.40;;;;;;493959;239;1204;-71
2021/03/13 03:28:27;;;;;;;;;;;22.10;27.40;;;;;;493951;239;1024;-71
2021/03/13 03:30:28;;;;;;;;;;;22.00;27.50;;;;;;494072;239;1173;-71
2021/03/13 03:32:29;;;;;;;;;;;22.00;27.50;;;;;;493960;239;1139;-72
2021/03/13 03:34:31;;;;;;;;;;;22.00;27.50;;;;;;494283;239;2151;-71
2021/03/13 03:36:32;;;;;;;;;;;22.10;27.40;;;;;;493964;239;1296;-71
2021/03/13 03:38:33;;;;;;;;;;;22.20;27.40;;;;;;493984;239;1032;-71
2021/03/13 03:40:35;;;;;;;;;;;22.30;27.40;;;;;;494112;239;1152;-71
2021/03/13 03:42:36;;;;;;;;;;;22.40;27.20;;;;;;493931;239;1140;-71
2021/03/13 03:44:37;;;;;;;;;;;22.50;27.20;;;;;;494040;239;1176;-71
2021/03/13 03:46:38;;;;;;;;;;;22.60;27.10;;;;;;493893;239;1216;-71
2021/03/13 03:48:40;;;;;;;;;;;22.60;27.10;;;;;;494039;239;1102;-71
2021/03/13 03:50:42;;;;;;;;;;;22.60;27.10;;;;;;493930;240;1197;-71
2021/03/13 03:52:42;;;;;;;;;;;22.70;27.00;;;;;;493943;240;1394;-71
2021/03/13 03:54:43;;;;;;;;;;;22.90;26.90;;;;;;493912;239;2187;-71
2021/03/13 03:56:45;;;;;;;;;;;23.00;26.90;;;;;;494012;239;1190;-71
2021/03/13 03:58:46;;;;;;;;;;;23.20;26.70;;;;;;493982;239;1057;-71
2021/03/13 04:00:47;;;;;;;;;;;23.20;26.70;;;;;;494076;239;1314;-71
2021/03/13 04:02:49;;;;;;;;;;;23.30;26.60;;;;;;493978;239;1109;-71
2021/03/13 04:04:50;;;;;;;;;;;23.30;26.70;;;;;;494056;240;1079;-71
2021/03/13 04:06:51;;;;;;;;;;;23.30;26.70;;;;;;493958;239;1084;-72
2021/03/13 04:08:52;;;;;;;;;;;23.30;26.70;;;;;;493915;239;1041;-71
2021/03/13 04:10:54;;;;;;;;;;;23.30;26.80;;;;;;493993;239;1261;-71
2021/03/13 04:12:57;;;;;;;;;;;23.20;26.80;;;;;;493959;239;1382;-72
2021/03/13 04:14:57;;;;;;;;;;;23.20;26.80;;;;;;493888;240;2142;-72
2021/03/13 04:16:58;;;;;;;;;;;23.10;26.90;;;;;;493917;239;1168;-72
2021/03/13 04:18:59;;;;;;;;;;;23.10;27.00;;;;;;493990;240;1224;-72
2021/03/13 04:21:01;;;;;;;;;;;23.00;27.00;;;;;;493999;239;1467;-72
2021/03/13 04:23:02;;;;;;;;;;;23.00;27.00;;;;;;493907;239;1057;-71
2021/03/13 04:25:03;;;;;;;;;;;23.00;27.00;;;;;;493995;239;977;-71
2021/03/13 04:27:05;;;;;;;;;;;23.00;27.10;;;;;;493898;239;1185;-71
2021/03/13 04:29:06;;;;;;;;;;;22.90;27.10;;;;;;493988;239;1056;-71
2021/03/13 04:31:07;;;;;;;;;;;22.90;27.20;;;;;;493903;239;1181;-71
2021/03/13 04:33:08;;;;;;;;;;;22.90;27.20;;;;;;493973;239;1177;-71
2021/03/13 04:35:10;;;;;;;;;;;22.90;27.20;;;;;;494006;239;2143;-71
2021/03/13 04:37:11;;;;;;;;;;;22.80;27.20;;;;;;493906;239;1321;-71
2021/03/13 04:39:12;;;;;;;;;;;22.80;27.30;;;;;;493991;239;1051;-71
2021/03/13 04:41:14;;;;;;;;;;;22.80;27.30;;;;;;493957;239;1038;-71
2021/03/13 04:43:15;;;;;;;;;;;22.80;27.30;;;;;;494011;239;966;-71
2021/03/13 04:45:16;;;;;;;;;;;22.80;27.40;;;;;;493919;239;954;-72
2021/03/13 04:47:17;;;;;;;;;;;22.80;27.30;;;;;;493948;239;1304;-72
2021/03/13 04:49:19;;;;;;;;;;;22.80;27.40;;;;;;493957;239;961;-72
2021/03/13 04:51:20;;;;;;;;;;;22.70;27.50;;;;;;493996;239;1067;-72
2021/03/13 04:53:21;;;;;;;;;;;22.80;27.50;;;;;;493950;239;1128;-71
2021/03/13 04:55:23;;;;;;;;;;;22.70;27.40;;;;;;493918;239;2151;-71
2021/03/13 04:57:24;;;;;;;;;;;22.70;27.40;;;;;;493919;239;1069;-71
2021/03/13 04:59:25;;;;;;;;;;;22.80;27.50;;;;;;493990;239;1073;-72
2021/03/13 05:01:26;;;;;;;;;;;22.70;27.50;;;;;;493922;239;1063;-71
2021/03/13 05:03:28;;;;;;;;;;;22.70;27.50;;;;;;493987;239;1138;-71
2021/03/13 05:05:33;;;;;;;;;;;22.70;27.50;;;;;;494030;239;1116;-71
2021/03/13 05:07:31;;;;;;;;;;;22.70;27.50;;;;;;493783;240;1859;-71
2021/03/13 05:09:32;;;;;;;;;;;22.70;27.50;;;;;;494015;239;986;-71
2021/03/13 05:11:34;;;;;;;;;;;22.80;27.50;;;;;;493914;240;1048;-72
2021/03/13 05:13:35;;;;;;;;;;;22.80;27.40;;;;;;494111;239;1022;-72
2021/03/13 05:15:37;;;;;;;;;;;22.80;27.40;;;;;;494045;239;2136;-71
2021/03/13 05:17:38;;;;;;;;;;;22.90;27.40;;;;;;493931;239;1089;-71
2021/03/13 05:19:39;;;;;;;;;;;22.90;27.40;;;;;;493929;239;1085;-71
2021/03/13 05:21:41;;;;;;;;;;;22.90;27.30;;;;;;493994;240;1071;-71
2021/03/13 05:23:43;;;;;;;;;;;22.90;27.30;;;;;;493954;239;1032;-71
2021/03/13 05:25:44;;;;;;;;;;;22.80;27.40;;;;;;493978;241;1380;-71
2021/03/13 05:27:45;;;;;;;;;;;22.90;27.40;;;;;;493910;239;1062;-71
2021/03/13 05:29:46;;;;;;;;;;;22.80;27.40;;;;;;493998;239;1071;-71
2021/03/13 05:31:47;;;;;;;;;;;22.80;27.40;;;;;;494034;239;1074;-71
2021/03/13 05:33:48;;;;;;;;;;;22.90;27.40;;;;;;494045;240;1223;-72
2021/03/13 05:35:50;;;;;;;;;;;22.90;27.30;;;;;;493944;239;2207;-71
2021/03/13 05:37:51;;;;;;;;;;;22.90;27.30;;;;;;493972;239;1039;-71
2021/03/13 05:39:52;;;;;;;;;;;22.90;27.30;;;;;;493985;239;1032;-71
2021/03/13 05:41:54;;;;;;;;;;;22.90;27.30;;;;;;494022;240;1109;-71
2021/03/13 05:43:55;;;;;;;;;;;23.00;27.30;;;;;;493978;239;1027;-71
2021/03/13 05:45:56;;;;;;;;;;;23.00;27.30;;;;;;494004;239;1038;-71
2021/03/13 05:47:57;;;;;;;;;;;23.00;27.30;;;;;;493980;239;1166;-71
2021/03/13 05:49:59;;;;;;;;;;;23.00;27.20;;;;;;494140;239;984;-71
2021/03/13 05:52:00;;;;;;;;;;;23.10;27.20;;;;;;493957;239;1042;-71
2021/03/13 05:54:02;;;;;;;;;;;23.10;27.10;;;;;;494080;239;965;-71
2021/03/13 05:56:03;;;;;;;;;;;23.10;27.10;;;;;;493914;239;2144;-71
2021/03/13 05:58:05;;;;;;;;;;;23.20;27.10;;;;;;493936;239;1030;-71
2021/03/13 06:00:05;;;;;;;;;;;23.20;27.00;;;;;;493856;241;1515;-71
2021/03/13 06:02:07;;;;;;;;;;;23.20;27.00;;;;;;493965;239;1045;-71
2021/03/13 06:04:08;;;;;;;;;;;23.20;27.00;;;;;;493891;239;1183;-71
2021/03/13 06:06:09;;;;;;;;;;;23.20;27.00;;;;;;493910;239;1110;-71
2021/03/13 06:08:10;;;;;;;;;;;23.10;27.00;;;;;;494055;239;1044;-71
2021/03/13 06:10:12;;;;;;;;;;;23.20;27.00;;;;;;494024;239;1160;-71
2021/03/13 06:12:13;;;;;;;;;;;23.20;27.00;;;;;;493857;240;1118;-71
2021/03/13 06:14:14;;;;;;;;;;;23.20;27.00;;;;;;493982;239;1074;-71
2021/03/13 06:16:16;;;;;;;;;;;23.30;26.90;;;;;;493887;239;2194;-71
2021/03/13 06:18:17;;;;;;;;;;;23.20;26.90;;;;;;493911;239;1096;-71
2021/03/13 06:20:18;;;;;;;;;;;23.20;27.00;;;;;;493998;240;1059;-71
2021/03/13 06:22:19;;;;;;;;;;;23.10;27.00;;;;;;493838;239;1202;-71
2021/03/13 06:24:24;;;;;;;;;;;23.20;26.90;;;;;;494110;240;1024;-71
2021/03/13 06:26:23;;;;;;;;;;;23.20;26.90;;;;;;493720;241;1340;-71
2021/03/13 06:28:24;;;;;;;;;;;23.20;26.90;;;;;;493946;239;1202;-71
2021/03/13 06:30:25;;;;;;;;;;;23.30;26.90;;;;;;493954;239;1100;-71
2021/03/13 06:32:26;;;;;;;;;;;23.20;26.90;;;;;;493910;239;1223;-71
2021/03/13 06:34:28;;;;;;;;;;;23.30;26.90;;;;;;493992;239;1187;-72
2021/03/13 06:36:29;;;;;;;;;;;23.20;26.90;;;;;;494011;239;2191;-71
2021/03/13 06:38:30;;;;;;;;;;;23.20;26.80;;;;;;493931;239;1056;-71
2021/03/13 06:40:32;;;;;;;;;;;23.20;26.90;;;;;;494050;239;1179;-71
2021/03/13 06:42:33;;;;;;;;;;;23.30;26.90;;;;;;493975;239;1090;-71
2021/03/13 06:44:34;;;;;;;;;;;23.30;26.80;;;;;;494116;239;1069;-71
2021/03/13 06:46:36;;;;;;;;;;;23.30;26.80;;;;;;493924;239;1204;-71
2021/03/13 06:48:37;;;;;;;;;;;23.30;26.70;;;;;;493952;238;1166;-71
2021/03/13 06:50:38;;;;;;;;;;;23.30;26.80;;;;;;493942;239;1342;-71
2021/03/13 06:52:40;;;;;;;;;;;23.20;26.80;;;;;;493991;239;983;-71
2021/03/13 06:54:41;;;;;;;;;;;23.40;26.80;;;;;;494027;239;1001;-71
2021/03/13 06:56:42;;;;;;;;;;;23.30;26.80;;;;;;493950;239;2199;-71
2021/03/13 06:58:43;;;;;;;;;;;23.20;26.80;;;;;;493950;239;1037;-71
2021/03/13 07:00:45;;;;;;;;;;;23.20;26.90;;;;;;493990;240;986;-71
2021/03/13 07:02:46;;;;;;;;;;;23.10;27.00;;;;;;493896;239;981;-72
2021/03/13 07:04:47;;;;;;;;;;;23.10;27.00;;;;;;493945;239;1080;-71
2021/03/13 07:06:48;;;;;;;;;;;22.90;27.00;;;;;;493971;239;1204;-71
2021/03/13 07:08:50;;;;;;;;;;;23.00;27.10;;;;;;493881;240;1447;-71
2021/03/13 07:10:51;;;;;;;;;;;23.00;27.10;;;;;;493910;239;1115;-71
2021/03/13 07:12:52;;;;;;;;;;;22.90;27.10;;;;;;493931;239;1229;-71
2021/03/13 07:14:54;;;;;;;;;;;22.90;27.10;;;;;;493896;239;1104;-71
2021/03/13 07:16:55;;;;;;;;;;;22.90;27.10;;;;;;493914;239;2190;-71
2021/03/13 07:18:56;;;;;;;;;;;22.90;27.20;;;;;;493977;237;1211;-71
2021/03/13 07:20:57;;;;;;;;;;;22.90;27.20;;;;;;493884;239;1088;-71
2021/03/13 07:22:59;;;;;;;;;;;22.80;27.20;;;;;;493937;239;1051;-71
2021/03/13 07:25:00;;;;;;;;;;;22.90;27.20;;;;;;493960;239;1057;-71
2021/03/13 07:27:01;;;;;;;;;;;22.70;27.30;;;;;;493806;239;1058;-72
2021/03/13 07:29:02;;;;;;;;;;;22.60;27.30;;;;;;493896;239;953;-71
2021/03/13 07:31:04;;;;;;;;;;;22.60;27.50;;;;;;493885;239;952;-71
2021/03/13 07:33:05;;;;;;;;;;;22.60;27.50;;;;;;493854;239;1050;-71
2021/03/13 07:35:08;;;;;;;;;;;22.50;27.60;;;;;;493917;240;1216;-71
2021/03/13 07:37:08;;;;;;;;;;;22.40;27.60;;;;;;493849;241;2207;-71
2021/03/13 07:39:09;;;;;;;;;;;22.40;27.60;;;;;;493959;239;1036;-71
2021/03/13 07:41:10;;;;;;;;;;;22.40;27.70;;;;;;493864;239;1298;-71
2021/03/13 07:43:11;;;;;;;;;;;22.30;27.60;;;;;;493808;239;1089;-71
2021/03/13 07:45:13;;;;;;;;;;;22.30;27.80;;;;;;493915;239;1023;-71
2021/03/13 07:47:14;;;;;;;;;;;22.30;27.80;;;;;;493836;239;1098;-71
2021/03/13 07:49:15;;;;;;;;;;;22.30;27.80;;;;;;493941;239;1125;-72
2021/03/13 07:51:17;;;;;;;;;;;22.20;27.80;;;;;;493894;239;1154;-71
2021/03/13 07:53:18;;;;;;;;;;;22.30;27.90;;;;;;493773;239;1102;-71
2021/03/13 07:55:19;;;;;;;;;;;22.30;27.80;;;;;;493907;239;1078;-72
2021/03/13 07:57:20;;;;;;;;;;;22.20;27.90;;;;;;493838;239;2190;-71
2021/03/13 07:59:22;;;;;;;;;;;22.20;27.90;;;;;;493906;239;991;-71
2021/03/13 08:01:23;;;;;;;;;;;22.20;27.90;;;;;;493836;239;1066;-71
2021/03/13 08:03:24;;;;;;;;;;;22.20;27.90;;;;;;493889;239;1056;-71
2021/03/13 08:05:26;;;;;;;;;;;22.20;27.90;;;;;;493888;239;1151;-71
2021/03/13 08:07:27;;;;;;;;;;;22.20;27.90;;;;;;493849;239;1103;-71
2021/03/13 08:09:28;;;;;;;;;;;22.20;27.90;;;;;;493828;239;1061;-71
2021/03/13 08:11:29;;;;;;;;;;;22.20;27.90;;;;;;493936;239;1057;-71
2021/03/13 08:13:31;;;;;;;;;;;22.20;27.90;;;;;;493905;239;1095;-71
2021/03/13 08:15:32;;;;;;;;;;;22.20;27.90;;;;;;493837;239;1119;-72
2021/03/13 08:17:33;;;;;;;;;;;22.20;27.90;;;;;;493907;239;2152;-71
2021/03/13 08:19:36;;;;;;;;;;;22.10;27.90;;;;;;493881;239;1068;-71
2021/03/13 08:21:36;;;;;;;;;;;22.20;28.00;;;;;;493768;239;1318;-71
2021/03/13 08:23:37;;;;;;;;;;;22.30;27.90;;;;;;494027;239;1057;-71
2021/03/13 08:25:38;;;;;;;;;;;22.20;27.80;;;;;;493856;239;1043;-71
2021/03/13 08:27:40;;;;;;;;;;;22.10;27.90;;;;;;493765;239;1178;-71
2021/03/13 08:29:41;;;;;;;;;;;22.20;28.00;;;;;;493967;239;1010;-71
2021/03/13 08:31:42;;;;;;;;;;;22.20;28.00;;;;;;493792;239;1191;-71
2021/03/13 08:33:43;;;;;;;;;;;22.10;27.90;;;;;;493822;239;1070;-71
2021/03/13 08:35:45;;;;;;;;;;;22.20;28.00;;;;;;493848;239;2199;-71
2021/03/13 08:37:46;;;;;;;;;;;22.10;28.00;;;;;;493898;239;1020;-71
2021/03/13 08:39:47;;;;;;;;;;;22.10;28.00;;;;;;493927;239;1066;-71
2021/03/13 08:41:49;;;;;;;;;;;22.10;28.10;;;;;;493851;239;1057;-72
2021/03/13 08:43:50;;;;;;;;;;;22.10;28.00;;;;;;493908;239;1034;-72
2021/03/13 08:45:51;;;;;;;;;;;22.10;28.10;;;;;;493994;239;1051;-71
2021/03/13 08:47:52;;;;;;;;;;;22.10;28.00;;;;;;493964;239;1097;-71
2021/03/13 08:49:54;;;;;;;;;;;22.10;28.00;;;;;;493876;239;1088;-71
2021/03/13 08:51:55;;;;;;;;;;;22.10;28.00;;;;;;493798;239;1276;-71
2021/03/13 08:53:56;;;;;;;;;;;22.10;28.00;;;;;;493902;239;1035;-71
2021/03/13 08:55:58;;;;;;;;;;;22.10;27.90;;;;;;493960;239;2243;-71
2021/03/13 08:57:59;;;;;;;;;;;22.00;28.00;;;;;;493787;239;1167;-71
2021/03/13 09:00:00;;;;;;;;;;;22.10;28.00;;;;;;493837;239;1054;-71
2021/03/13 09:02:01;;;;;;;;;;;22.00;27.90;;;;;;493793;239;1223;-71
2021/03/13 09:04:03;;;;;;;;;;;22.10;28.00;;;;;;493936;239;1017;-71
2021/03/13 09:06:04;;;;;;;;;;;22.10;27.90;;;;;;493881;239;1165;-71
2021/03/13 09:08:05;;;;;;;;;;;22.20;27.90;;;;;;493950;239;1107;-71
2021/03/13 09:10:06;;;;;;;;;;;22.20;27.90;;;;;;493920;239;1003;-71
2021/03/13 09:12:09;;;;;;;;;;;22.10;27.90;;;;;;493994;239;1264;-71
2021/03/13 09:14:09;;;;;;;;;;;22.10;27.90;;;;;;494139;239;1304;-71
2021/03/13 09:16:10;;;;;;;;;;;22.10;27.90;;;;;;493839;239;2135;-71
2021/03/13 09:18:12;;;;;;;;;;;22.10;27.90;;;;;;493934;239;1114;-71
2021/03/13 09:20:13;;;;;;;;;;;22.00;27.90;;;;;;493907;239;1094;-71
2021/03/13 09:22:14;;;;;;;;;;;22.10;27.90;;;;;;493887;239;1144;-72
2021/03/13 09:24:15;;;;;;;;;;;22.10;27.90;;;;;;493912;239;966;-71
2021/03/13 09:26:17;;;;;;;;;;;22.10;27.80;;;;;;493882;239;1025;-71
2021/03/13 09:28:18;;;;;;;;;;;22.20;27.80;;;;;;493823;239;1052;-71
2021/03/13 09:30:19;;;;;;;;;;;22.00;27.90;;;;;;493983;239;1138;-71
2021/03/13 09:32:21;;;;;;;;;;;22.10;27.90;;;;;;493917;239;1176;-71
2021/03/13 09:34:22;;;;;;;;;;;22.00;27.80;;;;;;493909;239;1075;-72
2021/03/13 09:36:23;;;;;;;;;;;22.00;27.80;;;;;;493811;239;2144;-71
2021/03/13 09:38:24;;;;;;;;;;;22.00;27.80;;;;;;493788;239;1070;-72
2021/03/13 09:40:26;;;;;;;;;;;22.00;27.80;;;;;;493942;239;1044;-71
2021/03/13 09:42:27;;;;;;;;;;;22.10;27.80;;;;;;493763;239;1200;-71
2021/03/13 09:44:28;;;;;;;;;;;22.00;27.80;;;;;;493862;239;1060;-71
2021/03/13 09:46:30;;;;;;;;;;;22.00;27.80;;;;;;493726;239;1229;-71
2021/03/13 09:48:31;;;;;;;;;;;21.90;27.80;;;;;;493898;239;1072;-71
2021/03/13 09:50:32;;;;;;;;;;;22.10;27.80;;;;;;493843;239;1344;-71
2021/03/13 09:52:33;;;;;;;;;;;22.00;27.80;;;;;;493913;239;1166;-71
2021/03/13 09:54:35;;;;;;;;;;;22.10;27.70;;;;;;494096;239;967;-71
2021/03/13 09:56:36;;;;;;;;;;;22.00;27.70;;;;;;493993;239;2127;-71
2021/03/13 09:58:38;;;;;;;;;;;21.90;27.80;;;;;;494040;239;1066;-71
2021/03/13 10:00:39;;;;;;;;;;;22.00;27.70;;;;;;493990;239;1093;-71
2021/03/13 10:02:40;;;;;;;;;;;22.10;27.70;;;;;;493835;239;1140;-71
2021/03/13 10:04:41;;;;;;;;;;;22.10;27.70;;;;;;493844;239;1043;-71
2021/03/13 10:06:43;;;;;;;;;;;22.00;27.60;;;;;;493832;239;1191;-72
2021/03/13 10:08:44;;;;;;;;;;;22.10;27.60;;;;;;493863;239;1080;-71
2021/03/13 10:10:45;;;;;;;;;;;22.00;27.70;;;;;;493815;239;1158;-71
2021/03/13 10:12:47;;;;;;;;;;;22.00;27.70;;;;;;493918;239;1107;-71
2021/03/13 10:14:49;;;;;;;;;;;21.90;27.70;;;;;;493850;239;1103;-72
2021/03/13 10:16:49;;;;;;;;;;;22.00;27.70;;;;;;493786;239;2128;-71
2021/03/13 10:18:50;;;;;;;;;;;22.00;27.70;;;;;;493889;239;1036;-71
2021/03/13 10:20:53;;;;;;;;;;;22.00;27.60;;;;;;493980;239;1114;-71
2021/03/13 10:22:53;;;;;;;;;;;21.90;27.70;;;;;;493936;239;1339;-71
2021/03/13 10:24:54;;;;;;;;;;;22.00;27.70;;;;;;493907;239;1058;-71
2021/03/13 10:26:56;;;;;;;;;;;22.00;27.70;;;;;;493866;239;1124;-71
2021/03/13 10:28:57;;;;;;;;;;;22.00;27.60;;;;;;493895;239;1033;-71
2021/03/13 10:30:58;;;;;;;;;;;22.10;27.60;;;;;;493845;239;1271;-71
2021/03/13 10:32:59;;;;;;;;;;;22.10;27.60;;;;;;493864;239;1042;-71
2021/03/13 10:35:01;;;;;;;;;;;22.00;27.60;;;;;;493919;239;1053;-71
2021/03/13 10:37:02;;;;;;;;;;;22.00;27.70;;;;;;493885;239;2150;-71
2021/03/13 10:39:03;;;;;;;;;;;22.00;27.60;;;;;;493899;239;1022;-72
2021/03/13 10:41:05;;;;;;;;;;;21.90;27.70;;;;;;493740;239;1170;-71
2021/03/13 10:43:06;;;;;;;;;;;21.90;27.70;;;;;;493808;239;1057;-71
2021/03/13 10:45:07;;;;;;;;;;;22.00;27.70;;;;;;493988;239;1079;-72
2021/03/13 10:47:08;;;;;;;;;;;22.00;27.70;;;;;;493857;239;1086;-71
2021/03/13 10:49:10;;;;;;;;;;;22.00;27.70;;;;;;493899;239;1254;-71
2021/03/13 10:51:11;;;;;;;;;;;22.00;27.70;;;;;;493956;239;1295;-71
2021/03/13 10:53:12;;;;;;;;;;;22.00;27.70;;;;;;493898;239;1147;-71
2021/03/13 10:55:13;;;;;;;;;;;22.10;27.60;;;;;;493865;239;1125;-71
2021/03/13 10:57:15;;;;;;;;;;;22.10;27.70;;;;;;493807;239;2190;-71
2021/03/13 10:59:16;;;;;;;;;;;21.90;27.70;;;;;;493917;239;1081;-71
2021/03/13 11:01:17;;;;;;;;;;;22.10;27.70;;;;;;493745;239;1177;-71
2021/03/13 11:03:19;;;;;;;;;;;22.10;27.70;;;;;;493888;239;1058;-71
2021/03/13 11:05:20;;;;;;;;;;;22.00;27.70;;;;;;493945;239;1012;-71
2021/03/13 11:07:21;;;;;;;;;;;22.10;27.70;;;;;;493981;239;1311;-71
2021/03/13 11:09:23;;;;;;;;;;;22.10;27.70;;;;;;493950;239;954;-71
2021/03/13 11:11:24;;;;;;;;;;;22.00;27.80;;;;;;493922;239;1268;-71
2021/03/13 11:13:25;;;;;;;;;;;22.00;27.70;;;;;;493968;239;1088;-71
2021/03/13 11:15:27;;;;;;;;;;;21.90;27.70;;;;;;493930;239;1060;-71
2021/03/13 11:17:28;;;;;;;;;;;22.00;27.70;;;;;;493836;239;2187;-71
2021/03/13 11:19:29;;;;;;;;;;;22.10;27.80;;;;;;493909;239;1041;-71
2021/03/13 11:21:30;;;;;;;;;;;22.10;27.70;;;;;;493900;239;1207;-71
2021/03/13 11:23:32;;;;;;;;;;;22.10;27.70;;;;;;494033;239;1138;-71
2021/03/13 11:25:33;;;;;;;;;;;22.20;27.70;;;;;;493850;239;1062;-71
2021/03/13 11:27:34;;;;;;;;;;;22.10;27.70;;;;;;493839;239;1031;-71
2021/03/13 11:29:36;;;;;;;;;;;22.00;27.80;;;;;;493856;239;1087;-71
2021/03/13 11:31:37;;;;;;;;;;;22.00;27.80;;;;;;493827;239;1029;-71
2021/03/13 11:33:38;;;;;;;;;;;22.00;27.80;;;;;;493977;239;1010;-71
2021/03/13 11:35:39;;;;;;;;;;;22.00;27.80;;;;;;493782;239;1099;-71
2021/03/13 11:37:41;;;;;;;;;;;21.90;27.80;;;;;;493858;237;2186;-71
2021/03/13 11:39:42;;;;;;;;;;;22.00;27.80;;;;;;493837;239;1127;-71
2021/03/13 11:41:43;;;;;;;;;;;21.90;27.90;;;;;;493862;239;1070;-71
2021/03/13 11:43:45;;;;;;;;;;;21.80;27.80;;;;;;493894;239;1198;-71
2021/03/13 11:45:46;;;;;;;;;;;21.90;27.80;;;;;;493981;239;1109;-71
2021/03/13 11:47:47;;;;;;;;;;;21.80;27.80;;;;;;493887;239;1061;-71
2021/03/13 11:49:48;;;;;;;;;;;21.80;27.90;;;;;;493900;239;1061;-71
2021/03/13 11:51:50;;;;;;;;;;;21.80;27.90;;;;;;494009;239;1205;-71
2021/03/13 11:53:51;;;;;;;;;;;21.90;27.80;;;;;;493882;239;1123;-71
2021/03/13 11:55:52;;;;;;;;;;;21.80;27.80;;;;;;493915;239;1302;-71